Time;durP1;ratioP1;P1;durP2;ratioP2;P2;SDS_P1;SDS_P2;PMS_P1;PMS_P2;Temp;Humidity;BMP_temperature;BMP_pressure;BME280_temperature;BME280_humidity;BME280_pressure;Samples;Min_cycle;Max_cycle;Signal;HPM_P1;HPM_P2
2023/04/19 00:01:19;;;;;;;31.42;18.77;;;7.70;99.90;;;;;;5035005;28;20128;-68
2023/04/19 00:03:45;;;;;;;30.20;18.50;;;7.70;99.90;;;;;;5041191;28;20043;-69
2023/04/19 00:06:13;;;;;;;29.92;18.38;;;7.70;99.90;;;;;;5054122;28;20162;-67
2023/04/19 00:08:40;;;;;;;29.25;18.30;;;7.70;99.90;;;;;;5039870;28;20033;-68
2023/04/19 00:11:07;;;;;;;31.92;18.83;;;7.70;99.90;;;;;;5039139;28;20036;-66
2023/04/19 00:13:33;;;;;;;31.38;18.23;;;7.70;99.90;;;;;;5042871;28;20041;-68
2023/04/19 00:15:58;;;;;;;31.50;17.55;;;7.70;99.90;;;;;;5040585;28;20037;-68
2023/04/19 00:18:24;;;;;;;33.58;17.92;;;7.70;99.90;;;;;;5039956;28;20488;-68
2023/04/19 00:20:50;;;;;;;28.83;17.55;;;7.70;99.90;;;;;;5040474;28;20040;-67
2023/04/19 00:23:15;;;;;;;30.67;18.85;;;7.70;99.90;;;;;;5043108;28;20047;-68
2023/04/19 00:25:41;;;;;;;31.02;17.48;;;7.70;99.90;;;;;;5041665;28;20049;-68
2023/04/19 00:28:06;;;;;;;30.42;17.02;;;7.70;99.90;;;;;;5038415;28;20040;-68
2023/04/19 00:30:32;;;;;;;28.88;17.23;;;7.70;99.90;;;;;;5037896;28;20075;-68
2023/04/19 00:32:58;;;;;;;31.58;17.05;;;7.70;99.90;;;;;;5039814;28;20364;-68
2023/04/19 00:35:23;;;;;;;27.83;16.40;;;7.60;99.90;;;;;;5038814;28;20041;-68
2023/04/19 00:37:49;;;;;;;30.23;17.08;;;7.60;99.90;;;;;;5039233;28;20040;-67
2023/04/19 00:40:14;;;;;;;27.77;16.38;;;7.60;99.90;;;;;;5041454;28;20049;-67
2023/04/19 00:42:40;;;;;;;28.80;16.23;;;7.50;99.90;;;;;;5040655;28;20045;-67
2023/04/19 00:45:06;;;;;;;30.88;17.77;;;7.50;99.90;;;;;;5040082;28;20545;-67
2023/04/19 00:47:32;;;;;;;27.75;16.35;;;7.40;99.90;;;;;;5041452;28;20040;-67
2023/04/19 00:49:58;;;;;;;25.58;15.82;;;7.40;99.90;;;;;;5039386;28;20394;-66
2023/04/19 00:52:24;;;;;;;26.65;16.13;;;7.40;99.90;;;;;;5038256;28;20048;-67
2023/04/19 00:54:51;;;;;;;25.63;15.32;;;7.40;99.90;;;;;;5042440;28;20135;-67
2023/04/19 00:57:17;;;;;;;27.75;16.40;;;7.30;99.90;;;;;;5045259;28;20055;-67
2023/04/19 00:59:43;;;;;;;26.80;15.05;;;7.30;99.90;;;;;;5044118;28;20076;-67
2023/04/19 01:02:09;;;;;;;25.45;15.23;;;7.30;99.90;;;;;;5045886;28;20120;-67
2023/04/19 01:04:34;;;;;;;30.08;15.55;;;7.30;99.90;;;;;;5044898;28;20052;-67
2023/04/19 01:07:01;;;;;;;27.23;14.68;;;7.30;99.90;;;;;;5041660;28;20045;-67
2023/04/19 01:09:27;;;;;;;24.98;14.95;;;7.30;99.90;;;;;;5046475;28;20365;-68
2023/04/19 01:11:53;;;;;;;29.55;15.55;;;7.30;99.90;;;;;;5043644;28;20055;-68
2023/04/19 01:14:18;;;;;;;28.25;15.05;;;7.40;99.90;;;;;;5046168;28;20514;-67
2023/04/19 01:16:44;;;;;;;25.77;15.23;;;7.40;99.90;;;;;;5040681;28;20049;-68
2023/04/19 01:19:10;;;;;;;24.52;14.27;;;7.50;99.90;;;;;;5043724;28;20034;-67
2023/04/19 01:21:38;;;;;;;23.77;14.27;;;7.50;99.90;;;;;;5046057;28;20464;-68
2023/04/19 01:24:04;;;;;;;26.23;14.90;;;7.60;99.90;;;;;;5029080;28;20051;-67
2023/04/19 01:26:29;;;;;;;27.50;14.38;;;7.60;99.90;;;;;;5050262;28;20040;-67
2023/04/19 01:28:55;;;;;;;23.73;14.50;;;7.60;99.90;;;;;;5048823;28;20127;-68
2023/04/19 01:31:20;;;;;;;25.27;14.23;;;7.70;99.90;;;;;;5045747;28;20068;-68
2023/04/19 01:33:46;;;;;;;26.15;15.05;;;7.70;99.90;;;;;;5047802;28;20040;-68
2023/04/19 01:36:12;;;;;;;26.35;14.27;;;7.70;99.90;;;;;;5045158;28;20136;-68
2023/04/19 01:38:37;;;;;;;25.98;13.90;;;7.80;99.90;;;;;;5045749;28;20514;-67
2023/04/19 01:41:03;;;;;;;25.00;12.98;;;7.80;99.90;;;;;;5046305;28;20075;-67
2023/04/19 01:43:28;;;;;;;24.90;12.77;;;7.80;99.90;;;;;;5049658;28;20071;-67
2023/04/19 01:45:54;;;;;;;25.05;12.98;;;7.80;99.90;;;;;;5048698;28;20118;-68
2023/04/19 01:48:20;;;;;;;19.88;11.93;;;7.90;99.90;;;;;;5046806;28;20068;-67
2023/04/19 01:50:45;;;;;;;22.20;12.05;;;7.90;99.90;;;;;;5047974;28;20037;-69
2023/04/19 01:53:11;;;;;;;19.85;11.50;;;7.90;99.90;;;;;;5048806;28;20044;-67
2023/04/19 01:55:37;;;;;;;21.23;12.13;;;7.90;99.90;;;;;;5048143;28;20053;-67
2023/04/19 01:58:02;;;;;;;20.90;12.18;;;7.90;99.90;;;;;;5047291;28;20044;-67
2023/04/19 02:00:28;;;;;;;19.17;11.52;;;7.90;99.90;;;;;;5046972;28;20198;-69
2023/04/19 02:02:53;;;;;;;19.80;11.90;;;7.90;99.90;;;;;;5046593;28;20048;-68
2023/04/19 02:05:19;;;;;;;18.58;11.20;;;8.00;99.90;;;;;;5047166;28;20045;-69
2023/04/19 02:07:45;;;;;;;20.02;11.43;;;7.90;99.90;;;;;;5064143;28;20158;-67
2023/04/19 02:10:11;;;;;;;19.55;11.65;;;7.90;99.90;;;;;;5045991;28;20041;-68
2023/04/19 02:12:37;;;;;;;18.58;11.50;;;7.90;99.90;;;;;;5048201;28;20036;-67
2023/04/19 02:15:03;;;;;;;18.40;11.45;;;7.90;99.90;;;;;;5045738;28;20044;-68
2023/04/19 02:17:29;;;;;;;18.75;11.10;;;7.90;99.90;;;;;;5048190;28;20309;-67
2023/04/19 02:19:54;;;;;;;19.10;11.38;;;7.80;99.90;;;;;;5043987;28;20169;-67
2023/04/19 02:22:20;;;;;;;20.17;11.80;;;7.80;99.90;;;;;;5046272;28;20040;-68
2023/04/19 02:24:46;;;;;;;20.73;11.77;;;7.80;99.90;;;;;;5059380;28;20037;-67
2023/04/19 02:27:12;;;;;;;20.13;11.55;;;7.80;99.90;;;;;;5049359;28;20029;-67
2023/04/19 02:29:38;;;;;;;19.20;11.43;;;7.70;99.90;;;;;;5046355;28;20053;-67
2023/04/19 02:32:05;;;;;;;19.55;11.77;;;7.70;99.90;;;;;;5045973;28;20451;-68
2023/04/19 02:34:31;;;;;;;20.70;11.40;;;7.70;99.90;;;;;;5044243;28;20097;-67
2023/04/19 02:36:57;;;;;;;17.95;11.27;;;7.70;99.90;;;;;;5043506;28;20033;-68
2023/04/19 02:39:23;;;;;;;17.73;10.82;;;7.70;99.90;;;;;;5042375;28;20313;-68
2023/04/19 02:41:49;;;;;;;20.70;10.95;;;7.70;99.90;;;;;;5041635;28;20175;-66
2023/04/19 02:44:14;;;;;;;21.00;11.73;;;7.70;99.90;;;;;;5042093;28;20507;-68
2023/04/19 02:46:40;;;;;;;19.00;11.45;;;7.70;99.90;;;;;;5043068;28;20079;-66
2023/04/19 02:49:05;;;;;;;20.67;11.52;;;7.70;99.90;;;;;;5041864;28;20037;-67
2023/04/19 02:51:31;;;;;;;19.15;11.05;;;7.70;99.90;;;;;;5040861;28;20037;-66
2023/04/19 02:53:56;;;;;;;18.80;11.02;;;7.60;99.90;;;;;;5043388;28;20041;-67
2023/04/19 02:56:22;;;;;;;18.77;11.25;;;7.60;99.90;;;;;;5042438;28;20095;-68
2023/04/19 02:58:48;;;;;;;19.33;11.60;;;7.50;99.90;;;;;;5042552;28;20072;-67
2023/04/19 03:01:13;;;;;;;19.02;12.00;;;7.50;99.90;;;;;;5043528;28;20041;-68
2023/04/19 03:03:39;;;;;;;21.90;11.68;;;7.40;99.90;;;;;;5043852;28;20033;-68
2023/04/19 03:06:05;;;;;;;19.27;11.77;;;7.40;99.90;;;;;;5040377;28;20044;-66
2023/04/19 03:08:30;;;;;;;21.63;12.35;;;7.30;99.90;;;;;;5038858;28;20464;-68
2023/04/19 03:10:57;;;;;;;20.58;12.25;;;7.20;99.90;;;;;;5040616;28;20045;-68
2023/04/19 03:13:22;;;;;;;20.00;12.48;;;7.20;99.90;;;;;;5042503;28;20049;-66
2023/04/19 03:15:48;;;;;;;18.08;10.98;;;7.10;99.90;;;;;;5041614;28;20049;-68
2023/04/19 03:18:14;;;;;;;25.48;12.90;;;7.10;99.90;;;;;;5051650;28;20041;-67
2023/04/19 03:20:39;;;;;;;20.55;12.30;;;7.00;99.90;;;;;;5041171;28;20041;-68
2023/04/19 03:23:05;;;;;;;24.05;12.68;;;6.90;99.90;;;;;;5039145;28;20468;-68
2023/04/19 03:25:32;;;;;;;21.80;11.80;;;6.80;99.90;;;;;;5039683;28;20541;-67
2023/04/19 03:27:57;;;;;;;22.48;11.75;;;6.80;99.90;;;;;;5041571;28;20045;-68
2023/04/19 03:30:23;;;;;;;22.88;12.88;;;6.70;99.90;;;;;;5038088;28;20451;-67
2023/04/19 03:32:48;;;;;;;19.83;12.02;;;6.70;99.90;;;;;;5039071;28;20459;-67
2023/04/19 03:35:14;;;;;;;23.10;12.70;;;6.60;99.90;;;;;;5040893;28;20045;-68
2023/04/19 03:37:40;;;;;;;23.30;13.00;;;6.50;99.90;;;;;;5039521;28;20403;-67
2023/04/19 03:40:06;;;;;;;23.20;12.90;;;6.50;99.90;;;;;;5040806;28;20036;-67
2023/04/19 03:42:31;;;;;;;23.88;13.60;;;6.40;99.90;;;;;;5042437;28;20574;-68
2023/04/19 03:44:57;;;;;;;28.13;13.20;;;6.30;99.90;;;;;;5041320;28;20041;-66
2023/04/19 03:47:22;;;;;;;26.45;13.38;;;6.30;99.90;;;;;;5040789;28;20049;-68
2023/04/19 03:49:48;;;;;;;23.42;13.40;;;6.30;99.90;;;;;;5042153;28;20198;-67
2023/04/19 03:52:13;;;;;;;25.55;14.00;;;6.20;99.90;;;;;;5042768;28;20169;-68
2023/04/19 03:54:39;;;;;;;24.27;13.80;;;6.20;99.90;;;;;;5043517;28;20059;-66
2023/04/19 03:57:05;;;;;;;24.33;13.52;;;6.10;99.90;;;;;;5039923;28;20049;-68
2023/04/19 03:59:30;;;;;;;26.38;13.90;;;6.10;99.90;;;;;;5042554;28;20406;-68
2023/04/19 04:01:56;;;;;;;32.08;14.85;;;6.00;99.90;;;;;;5040698;28;20571;-67
2023/04/19 04:04:21;;;;;;;24.10;13.65;;;6.00;99.90;;;;;;5052453;28;21173;-67
2023/04/19 04:06:47;;;;;;;25.92;14.13;;;5.90;99.90;;;;;;5041453;28;20090;-67
2023/04/19 04:09:12;;;;;;;24.75;13.45;;;5.90;99.90;;;;;;5054210;28;20156;-66
2023/04/19 04:11:38;;;;;;;27.27;14.95;;;5.80;99.90;;;;;;5042126;28;20037;-68
2023/04/19 04:14:04;;;;;;;26.85;13.95;;;5.80;99.90;;;;;;5056308;28;20093;-67
2023/04/19 04:16:29;;;;;;;25.92;14.07;;;5.70;99.90;;;;;;5039139;28;20045;-67
2023/04/19 04:18:55;;;;;;;24.77;13.95;;;5.70;99.90;;;;;;5039494;28;20518;-67
2023/04/19 04:21:21;;;;;;;27.23;13.20;;;5.60;99.90;;;;;;5043184;28;20033;-67
2023/04/19 04:23:48;;;;;;;24.50;13.63;;;5.60;99.90;;;;;;5040837;28;20037;-68
2023/04/19 04:26:14;;;;;;;22.88;12.70;;;5.60;99.90;;;;;;5039992;28;20044;-67
2023/04/19 04:28:39;;;;;;;26.27;12.95;;;5.60;99.90;;;;;;5038974;28;20044;-67
2023/04/19 04:31:05;;;;;;;25.25;12.88;;;5.60;99.90;;;;;;5056505;28;20037;-67
2023/04/19 04:33:30;;;;;;;23.67;12.20;;;5.60;99.90;;;;;;5039283;28;20040;-67
2023/04/19 04:35:57;;;;;;;20.33;11.98;;;5.60;99.90;;;;;;5040688;28;20147;-67
2023/04/19 04:38:23;;;;;;;21.25;12.05;;;5.60;99.90;;;;;;5041611;28;20186;-68
2023/04/19 04:40:53;;;;;;;25.48;12.80;;;5.50;99.90;;;;;;5040672;28;20045;-68
2023/04/19 04:43:22;;;;;;;21.80;12.40;;;5.50;99.90;;;;;;5039504;28;20076;-67
2023/04/19 04:45:50;;;;;;;25.77;12.40;;;5.50;99.90;;;;;;5039820;28;20080;-68
2023/04/19 04:48:16;;;;;;;20.67;11.40;;;5.50;99.90;;;;;;5041146;28;20087;-66
2023/04/19 04:50:43;;;;;;;23.05;11.48;;;5.50;99.90;;;;;;5042162;28;20029;-67
2023/04/19 04:53:10;;;;;;;22.90;11.43;;;5.50;99.90;;;;;;5042393;28;20469;-68
2023/04/19 04:55:36;;;;;;;19.42;10.57;;;5.50;99.90;;;;;;5039838;28;20037;-67
2023/04/19 04:58:04;;;;;;;21.77;10.63;;;5.50;99.90;;;;;;5047798;28;20162;-67
2023/04/19 05:00:30;;;;;;;19.23;10.77;;;5.60;99.90;;;;;;5045381;28;20043;-67
2023/04/19 05:02:56;;;;;;;22.55;11.65;;;5.60;99.90;;;;;;5044993;28;20044;-68
2023/04/19 05:05:22;;;;;;;20.02;11.32;;;5.60;99.90;;;;;;5048015;28;20040;-68
2023/04/19 05:07:47;;;;;;;21.00;10.80;;;5.70;99.90;;;;;;5047962;28;20036;-68
2023/04/19 05:10:12;;;;;;;19.25;10.25;;;5.60;99.90;;;;;;5047346;28;20174;-66
2023/04/19 05:12:38;;;;;;;22.83;10.85;;;5.70;99.90;;;;;;5047999;28;20028;-67
2023/04/19 05:15:05;;;;;;;23.15;11.43;;;5.70;99.90;;;;;;5048093;28;20098;-69
2023/04/19 05:17:30;;;;;;;20.40;11.05;;;5.70;99.90;;;;;;5047878;28;20045;-67
2023/04/19 05:19:56;;;;;;;21.30;11.07;;;5.70;99.90;;;;;;5047462;28;20052;-67
2023/04/19 05:22:21;;;;;;;18.45;10.02;;;5.80;99.90;;;;;;5046899;28;20029;-68
2023/04/19 05:24:49;;;;;;;20.55;10.65;;;5.80;99.90;;;;;;5061341;28;20028;-67
2023/04/19 05:27:14;;;;;;;21.02;10.77;;;5.80;99.90;;;;;;5048842;28;20538;-68
2023/04/19 05:29:40;;;;;;;21.45;10.70;;;5.80;99.90;;;;;;5045293;28;20037;-67
2023/04/19 05:32:06;;;;;;;20.15;10.88;;;5.80;99.90;;;;;;5045163;28;21252;-68
2023/04/19 05:34:32;;;;;;;19.42;10.80;;;5.80;99.90;;;;;;5047230;28;20060;-66
2023/04/19 05:36:58;;;;;;;20.38;10.90;;;5.90;99.90;;;;;;5045950;28;21546;-68
2023/04/19 05:39:24;;;;;;;21.77;10.70;;;5.90;99.90;;;;;;5046957;28;20403;-68
2023/04/19 05:41:49;;;;;;;20.13;10.43;;;5.90;99.90;;;;;;5061709;28;20103;-67
2023/04/19 05:44:15;;;;;;;19.42;10.27;;;6.00;99.90;;;;;;5049983;28;20178;-69
2023/04/19 05:46:40;;;;;;;20.92;10.25;;;6.00;99.90;;;;;;5046447;28;20432;-68
2023/04/19 05:49:06;;;;;;;22.55;10.55;;;6.10;99.90;;;;;;5045694;28;20063;-66
2023/04/19 05:51:31;;;;;;;18.02;10.23;;;6.00;99.90;;;;;;5048372;28;20029;-67
2023/04/19 05:53:58;;;;;;;16.08;9.45;;;6.10;99.90;;;;;;5047383;28;20052;-69
2023/04/19 05:56:24;;;;;;;18.70;9.93;;;6.10;99.90;;;;;;5047386;28;20138;-67
2023/04/19 05:58:49;;;;;;;18.17;9.27;;;6.20;99.90;;;;;;5043657;28;20076;-66
2023/04/19 06:01:15;;;;;;;16.70;8.95;;;6.20;99.90;;;;;;5045756;28;20041;-68
2023/04/19 06:03:41;;;;;;;17.73;9.77;;;6.30;99.90;;;;;;5045580;28;20103;-66
2023/04/19 06:06:06;;;;;;;16.35;8.60;;;6.30;99.90;;;;;;5047250;28;20044;-69
2023/04/19 06:08:32;;;;;;;16.05;8.20;;;6.40;99.90;;;;;;5047543;28;20385;-67
2023/04/19 06:10:58;;;;;;;14.70;8.52;;;6.40;99.90;;;;;;5047563;28;20432;-69
2023/04/19 06:13:24;;;;;;;15.02;8.20;;;6.50;99.90;;;;;;5046722;28;20029;-66
2023/04/19 06:15:50;;;;;;;16.25;8.48;;;6.60;99.90;;;;;;5046008;28;20051;-69
2023/04/19 06:18:15;;;;;;;17.02;9.07;;;6.60;99.90;;;;;;5049746;28;20119;-67
2023/04/19 06:20:41;;;;;;;14.52;8.10;;;6.70;99.90;;;;;;5047312;28;20080;-69
2023/04/19 06:23:07;;;;;;;15.32;8.27;;;6.70;99.90;;;;;;5051807;28;20048;-69
2023/04/19 06:25:32;;;;;;;14.82;8.35;;;6.80;99.90;;;;;;5051047;28;20032;-66
2023/04/19 06:27:58;;;;;;;14.77;8.45;;;6.80;99.90;;;;;;5050876;28;20492;-65
2023/04/19 06:30:24;;;;;;;15.95;8.68;;;6.90;99.90;;;;;;5049553;28;20658;-69
2023/04/19 06:32:50;;;;;;;18.35;8.05;;;7.00;99.90;;;;;;5046782;28;20598;-67
2023/04/19 06:35:15;;;;;;;15.90;7.88;;;7.00;99.90;;;;;;5049747;28;20139;-66
2023/04/19 06:37:41;;;;;;;15.15;8.25;;;7.10;99.90;;;;;;5051527;28;20152;-67
2023/04/19 06:40:07;;;;;;;16.70;8.07;;;7.10;99.90;;;;;;5049733;28;20037;-70
2023/04/19 06:42:36;;;;;;;15.70;7.93;;;7.20;99.90;;;;;;5050571;28;20529;-68
2023/04/19 06:45:03;;;;;;;15.27;7.85;;;7.30;99.90;;;;;;5051314;28;20041;-69
2023/04/19 06:47:29;;;;;;;14.75;7.93;;;7.30;99.90;;;;;;5049917;28;20045;-70
2023/04/19 06:49:55;;;;;;;13.65;7.43;;;7.40;99.90;;;;;;5048619;28;20037;-68
2023/04/19 06:52:21;;;;;;;14.18;7.15;;;7.50;99.90;;;;;;5050829;28;20041;-69
2023/04/19 06:54:50;;;;;;;17.02;7.18;;;7.60;99.90;;;;;;5048726;28;20033;-69
2023/04/19 06:57:16;;;;;;;11.07;6.68;;;7.70;99.90;;;;;;5045564;28;20559;-66
2023/04/19 06:59:42;;;;;;;13.85;6.13;;;7.70;99.90;;;;;;5043929;28;20380;-66
2023/04/19 07:02:08;;;;;;;12.63;6.30;;;7.80;99.90;;;;;;5050437;28;20055;-67
2023/04/19 07:04:33;;;;;;;10.70;6.10;;;7.80;99.90;;;;;;5066442;28;20052;-69
2023/04/19 07:06:59;;;;;;;11.88;6.60;;;7.90;99.90;;;;;;5046009;28;20068;-70
2023/04/19 07:09:25;;;;;;;15.65;7.18;;;8.00;99.90;;;;;;5047934;28;20504;-69
2023/04/19 07:11:51;;;;;;;15.43;6.93;;;8.00;99.90;;;;;;5050874;28;20051;-70
2023/04/19 07:14:19;;;;;;;12.20;6.38;;;8.10;99.90;;;;;;5050601;28;20037;-70
2023/04/19 07:16:46;;;;;;;13.38;6.55;;;8.20;99.90;;;;;;5030740;28;20046;-68
2023/04/19 07:19:12;;;;;;;13.35;6.57;;;8.30;99.90;;;;;;5030436;28;20484;-66
2023/04/19 07:21:38;;;;;;;15.68;6.05;;;8.30;99.90;;;;;;5047760;28;20055;-68
2023/04/19 07:24:05;;;;;;;10.35;5.00;;;8.40;99.90;;;;;;5051112;28;20041;-68
2023/04/19 07:26:31;;;;;;;11.63;5.47;;;8.40;99.90;;;;;;5052015;28;20041;-66
2023/04/19 07:28:57;;;;;;;12.98;5.40;;;8.50;99.90;;;;;;5048554;28;20098;-70
2023/04/19 07:31:26;;;;;;;10.10;5.22;;;8.60;99.90;;;;;;5050373;28;20059;-68
2023/04/19 07:33:52;;;;;;;8.93;5.35;;;8.60;99.90;;;;;;5050613;28;20399;-66
2023/04/19 07:36:17;;;;;;;7.40;4.22;;;8.70;99.90;;;;;;5052133;28;20365;-66
2023/04/19 07:38:43;;;;;;;7.55;4.63;;;8.80;99.90;;;;;;5049528;28;20155;-66
2023/04/19 07:41:09;;;;;;;10.68;4.55;;;8.80;99.90;;;;;;5049100;28;20071;-67
2023/04/19 07:43:35;;;;;;;7.05;4.25;;;8.90;99.90;;;;;;5051679;28;20059;-68
2023/04/19 07:46:01;;;;;;;9.70;3.90;;;9.00;99.90;;;;;;5048306;28;20144;-69
2023/04/19 07:48:27;;;;;;;7.65;4.25;;;9.00;99.90;;;;;;5050242;28;20037;-67
2023/04/19 07:50:53;;;;;;;6.07;3.28;;;9.10;99.90;;;;;;5047083;28;21516;-67
2023/04/19 07:53:18;;;;;;;7.47;3.50;;;9.10;99.90;;;;;;5051427;28;20032;-69
2023/04/19 07:55:44;;;;;;;7.90;3.95;;;9.20;99.90;;;;;;5039937;28;20040;-68
2023/04/19 07:58:10;;;;;;;7.50;3.78;;;9.20;99.90;;;;;;5046542;28;20032;-68
2023/04/19 08:00:36;;;;;;;7.78;3.90;;;9.30;99.90;;;;;;5046733;28;20029;-70
2023/04/19 08:03:02;;;;;;;9.88;4.03;;;9.30;99.90;;;;;;5044992;28;20483;-70
2023/04/19 08:05:29;;;;;;;6.72;3.78;;;9.40;99.90;;;;;;5044115;28;20041;-70
2023/04/19 08:07:55;;;;;;;5.75;3.03;;;9.50;99.90;;;;;;5046886;28;20518;-69
2023/04/19 08:10:21;;;;;;;7.50;3.50;;;9.50;99.90;;;;;;5043772;28;20052;-70
2023/04/19 08:12:48;;;;;;;7.40;3.53;;;9.60;99.90;;;;;;5042939;28;20045;-71
2023/04/19 08:15:14;;;;;;;8.48;3.60;;;9.70;99.90;;;;;;5046246;28;20037;-70
2023/04/19 08:17:41;;;;;;;8.18;3.90;;;9.70;99.90;;;;;;5044638;28;20033;-68
2023/04/19 08:20:08;;;;;;;8.00;3.47;;;9.80;99.90;;;;;;5041803;28;20408;-69
2023/04/19 08:22:34;;;;;;;10.52;3.25;;;9.90;99.90;;;;;;5045429;28;21265;-63
2023/04/19 08:25:00;;;;;;;9.55;3.60;;;10.00;99.90;;;;;;5046825;28;20060;-70
2023/04/19 08:27:26;;;;;;;6.85;3.10;;;10.00;99.90;;;;;;5044414;28;20045;-71
2023/04/19 08:29:51;;;;;;;10.32;3.85;;;10.00;99.90;;;;;;5043670;28;20340;-72
2023/04/19 08:32:17;;;;;;;6.05;3.63;;;10.10;99.90;;;;;;5043990;28;20308;-73
2023/04/19 08:34:42;;;;;;;7.75;4.07;;;10.20;99.90;;;;;;5042594;28;22374;-71
2023/04/19 08:37:08;;;;;;;9.38;3.80;;;10.30;99.90;;;;;;5044279;28;20064;-70
2023/04/19 08:39:34;;;;;;;6.75;3.80;;;10.30;99.90;;;;;;5043381;28;20440;-72
2023/04/19 08:42:05;;;;;;;8.10;4.30;;;10.40;99.90;;;;;;5044758;28;20041;-74
2023/04/19 08:44:32;;;;;;;9.23;4.32;;;10.50;99.90;;;;;;5042156;28;20090;-71
2023/04/19 08:47:00;;;;;;;10.48;4.70;;;10.60;99.90;;;;;;5044452;28;20404;-70
2023/04/19 08:49:30;;;;;;;7.95;4.68;;;10.70;99.90;;;;;;5044059;28;20131;-71
2023/04/19 08:52:02;;;;;;;8.80;4.50;;;10.70;99.90;;;;;;5044246;28;20037;-74
2023/04/19 08:54:28;;;;;;;9.48;4.57;;;10.70;99.90;;;;;;5041952;28;20102;-74
2023/04/19 08:56:57;;;;;;;7.68;4.63;;;10.90;99.90;;;;;;5044680;28;20049;-73
2023/04/19 08:59:22;;;;;;;9.48;4.80;;;10.90;99.90;;;;;;5045963;28;20045;-73
2023/04/19 09:01:48;;;;;;;9.73;4.55;;;11.00;99.90;;;;;;5046955;28;20043;-71
2023/04/19 09:04:14;;;;;;;9.48;5.28;;;11.00;99.90;;;;;;5064793;28;20113;-69
2023/04/19 09:06:40;;;;;;;8.25;5.03;;;11.00;99.90;;;;;;5047087;28;20096;-70
2023/04/19 09:09:25;;;;;;;9.43;4.50;;;11.00;99.90;;;;;;5046390;28;20087;-69
2023/04/19 09:11:50;;;;;;;8.02;4.13;;;11.00;99.90;;;;;;5047726;28;20036;-72
2023/04/19 09:14:17;;;;;;;9.70;5.07;;;11.00;99.90;;;;;;5047091;28;20476;-71
2023/04/19 09:16:44;;;;;;;8.82;4.70;;;11.00;99.90;;;;;;5045812;28;20044;-70
2023/04/19 09:19:11;;;;;;;11.68;4.90;;;11.10;99.90;;;;;;5045285;28;20191;-71
2023/04/19 09:21:37;;;;;;;8.90;4.75;;;11.20;99.90;;;;;;5047566;28;20068;-71
2023/04/19 09:24:04;;;;;;;8.05;5.00;;;11.30;99.90;;;;;;5045467;28;20044;-70
2023/04/19 09:26:30;;;;;;;9.60;5.00;;;11.30;99.90;;;;;;5043622;28;20041;-71
2023/04/19 09:28:57;;;;;;;10.20;4.68;;;11.40;99.90;;;;;;5047630;28;20134;-72
2023/04/19 09:31:24;;;;;;;9.77;4.90;;;11.40;99.90;;;;;;5056898;28;20041;-70
2023/04/19 09:33:50;;;;;;;10.82;5.20;;;11.40;99.90;;;;;;5047474;28;20036;-71
2023/04/19 09:36:30;;;;;;;8.48;4.88;;;11.50;99.90;;;;;;5048042;28;20553;-72
2023/04/19 09:38:57;;;;;;;10.65;5.20;;;11.60;99.90;;;;;;5048454;28;20128;-73
2023/04/19 09:41:23;;;;;;;10.95;5.47;;;11.70;99.90;;;;;;5049535;28;20037;-75
2023/04/19 09:43:49;;;;;;;9.35;4.47;;;11.80;99.90;;;;;;5041187;28;20399;-73
2023/04/19 09:46:35;;;;;;;10.32;5.03;;;11.80;99.90;;;;;;5034766;28;20041;-70
2023/04/19 09:49:30;;;;;;;11.20;4.65;;;11.90;99.90;;;;;;5048933;28;20452;-74
2023/04/19 09:51:56;;;;;;;11.80;4.95;;;11.90;99.90;;;;;;5040440;28;20103;-74
2023/04/19 09:54:31;;;;;;;10.18;4.60;;;12.00;99.90;;;;;;5052990;28;20040;-70
2023/04/19 09:56:56;;;;;;;6.35;4.00;;;12.10;99.90;;;;;;5053235;28;20063;-71
2023/04/19 09:59:22;;;;;;;10.35;4.00;;;12.20;99.60;;;;;;5052806;28;20447;-70
2023/04/19 10:01:55;;;;;;;9.73;4.60;;;12.30;99.20;;;;;;5053682;28;20084;-73
2023/04/19 10:04:21;;;;;;;6.18;4.03;;;12.20;98.10;;;;;;5035337;28;20048;-72
2023/04/19 10:06:49;;;;;;;6.25;4.20;;;12.30;97.90;;;;;;5054227;28;20076;-71
2023/04/19 10:09:15;;;;;;;8.18;4.25;;;12.30;99.00;;;;;;5050564;28;20381;-71
2023/04/19 10:11:46;;;;;;;8.25;3.97;;;12.40;96.60;;;;;;5052154;28;20045;-72
2023/04/19 10:14:14;;;;;;;11.35;3.97;;;12.40;95.70;;;;;;5053285;28;20069;-72
2023/04/19 10:16:40;;;;;;;7.05;4.43;;;12.50;97.70;;;;;;5052745;28;20052;-73
2023/04/19 10:19:12;;;;;;;7.88;3.92;;;12.60;98.70;;;;;;5050688;28;20051;-73
2023/04/19 10:21:40;;;;;;;6.57;4.32;;;12.70;98.50;;;;;;5032981;28;20416;-72
2023/04/19 10:24:08;;;;;;;7.07;4.40;;;12.80;99.30;;;;;;5052676;28;20037;-71
2023/04/19 10:27:01;;;;;;;8.93;4.43;;;12.80;98.90;;;;;;5053772;28;20087;-75
2023/04/19 10:29:59;;;;;;;10.23;4.63;;;12.90;99.40;;;;;;5051647;28;20049;-72
2023/04/19 10:32:42;;;;;;;8.82;4.22;;;12.90;96.50;;;;;;5050184;28;20160;-72
2023/04/19 10:35:33;;;;;;;11.15;4.10;;;13.00;98.20;;;;;;5050904;28;20114;-71
2023/04/19 10:38:06;;;;;;;10.90;4.85;;;13.00;97.60;;;;;;5051537;28;20049;-72
2023/04/19 10:40:59;;;;;;;9.73;4.55;;;13.00;97.90;;;;;;5051773;28;20049;-68
2023/04/19 10:43:25;;;;;;;;;;;13.00;99.90;;;;;;5052195;28;20037;-69
2023/04/19 10:45:51;;;;;;;6.80;4.22;;;13.10;97.20;;;;;;5050489;28;20366;-73
2023/04/19 10:48:36;;;;;;;8.13;4.07;;;13.10;96.10;;;;;;5067610;28;20097;-69
2023/04/19 10:51:02;;;;;;;12.18;4.13;;;13.20;97.00;;;;;;5051405;28;20110;-74
2023/04/19 10:53:53;;;;;;;7.93;3.85;;;13.20;97.20;;;;;;5050087;28;20048;-71
2023/04/19 10:57:01;;;;;;;7.95;3.70;;;13.30;96.70;;;;;;5050739;28;20446;-72
2023/04/19 10:59:34;;;;;;;8.85;4.65;;;13.40;96.80;;;;;;5051546;28;20048;-73
2023/04/19 11:02:23;;;;;;;8.65;4.30;;;13.40;93.50;;;;;;5052003;28;20484;-72
2023/04/19 11:04:52;;;;;;;5.10;3.58;;;13.40;96.10;;;;;;5042694;28;20060;-71
2023/04/19 11:07:19;;;;;;;7.28;4.13;;;13.40;94.50;;;;;;5050396;28;20042;-71
2023/04/19 11:09:46;;;;;;;6.22;3.97;;;13.50;96.40;;;;;;5051567;28;20052;-71
2023/04/19 11:12:14;;;;;;;7.18;4.20;;;13.60;95.80;;;;;;5053331;28;20041;-74
2023/04/19 11:14:42;;;;;;;6.88;4.00;;;13.70;96.80;;;;;;5050384;28;20116;-72
2023/04/19 11:17:19;;;;;;;8.63;3.80;;;13.80;95.00;;;;;;5068073;28;20044;-73
2023/04/19 11:19:51;;;;;;;7.20;4.30;;;13.80;93.40;;;;;;5067715;28;20041;-72
2023/04/19 11:22:17;;;;;;;8.32;3.90;;;13.80;94.20;;;;;;5049693;28;20132;-70
2023/04/19 11:24:47;;;;;;;5.22;3.60;;;13.80;93.30;;;;;;5050017;28;20128;-74
2023/04/19 11:27:12;;;;;;;8.18;3.95;;;13.90;95.20;;;;;;5051365;28;20491;-68
2023/04/19 11:29:38;;;;;;;5.97;3.88;;;13.90;94.60;;;;;;5050384;28;20045;-70
2023/04/19 11:32:04;;;;;;;8.43;4.10;;;14.00;94.80;;;;;;5051251;28;20051;-70
2023/04/19 11:34:35;;;;;;;7.07;4.05;;;14.00;91.50;;;;;;5051471;28;20120;-72
2023/04/19 11:37:01;;;;;;;10.00;4.00;;;14.00;92.40;;;;;;5034815;28;20483;-69
2023/04/19 11:39:27;;;;;;;6.88;3.75;;;14.00;92.00;;;;;;5047818;28;20070;-70
2023/04/19 11:41:52;;;;;;;8.10;4.13;;;13.90;92.50;;;;;;5051304;28;20044;-71
2023/04/19 11:44:21;;;;;;;6.68;3.88;;;14.00;92.30;;;;;;5051350;28;20408;-72
2023/04/19 11:47:07;;;;;;;8.85;3.90;;;14.00;92.90;;;;;;5051444;28;20705;-68
2023/04/19 11:49:33;;;;;;;6.20;3.70;;;14.10;93.00;;;;;;5050199;28;20048;-73
2023/04/19 11:52:04;;;;;;;5.78;3.67;;;14.20;94.20;;;;;;5049647;28;20067;-72
2023/04/19 11:54:30;;;;;;;5.35;3.20;;;14.30;91.10;;;;;;5050672;28;20037;-71
2023/04/19 11:57:25;;;;;;;5.85;3.50;;;14.20;88.80;;;;;;5049090;28;20047;-70
2023/04/19 12:00:10;;;;;;;6.47;3.15;;;14.20;89.00;;;;;;5033486;28;20055;-71
2023/04/19 12:02:39;;;;;;;6.68;3.90;;;14.30;92.00;;;;;;5050702;28;20421;-69
2023/04/19 12:05:13;;;;;;;6.68;3.70;;;14.30;91.10;;;;;;5049061;28;20045;-71
2023/04/19 12:08:01;;;;;;;8.57;3.97;;;14.40;91.80;;;;;;5049415;28;20393;-72
2023/04/19 12:10:26;;;;;;;7.60;3.30;;;14.30;90.70;;;;;;5049048;28;20091;-72
2023/04/19 12:12:52;;;;;;;7.93;3.70;;;14.40;92.00;;;;;;5048922;28;20076;-69
2023/04/19 12:15:18;;;;;;;6.97;3.22;;;14.50;91.30;;;;;;5048954;28;20053;-71
2023/04/19 12:18:00;;;;;;;7.57;3.45;;;14.50;90.90;;;;;;5047799;28;20404;-69
2023/04/19 12:20:33;;;;;;;9.15;3.78;;;14.50;91.80;;;;;;5049949;28;20098;-70
2023/04/19 12:22:59;;;;;;;9.77;4.18;;;14.40;90.00;;;;;;5050457;28;20036;-72
2023/04/19 12:25:32;;;;;;;6.68;3.63;;;14.50;92.00;;;;;;5048066;28;20454;-71
2023/04/19 12:27:59;;;;;;;8.63;3.85;;;14.40;89.10;;;;;;5042750;28;20044;-68
2023/04/19 12:30:25;;;;;;;7.85;4.13;;;14.40;90.00;;;;;;5044636;28;20029;-72
2023/04/19 12:32:54;;;;;;;5.72;3.75;;;14.50;91.00;;;;;;5049932;28;20487;-70
2023/04/19 12:35:24;;;;;;;8.18;4.13;;;14.60;91.20;;;;;;5048043;28;20167;-70
2023/04/19 12:37:51;;;;;;;7.35;3.78;;;14.60;91.80;;;;;;5049916;28;20491;-70
2023/04/19 12:40:16;;;;;;;7.72;3.90;;;14.70;92.50;;;;;;5047658;28;20546;-71
2023/04/19 12:42:42;;;;;;;11.82;4.07;;;14.80;91.70;;;;;;5048314;28;20037;-74
2023/04/19 12:45:08;;;;;;;7.35;4.25;;;14.70;90.20;;;;;;5047549;28;20403;-69